Time;durP1;ratioP1;P1;durP2;ratioP2;P2;SDS_P1;SDS_P2;PMS_P1;PMS_P2;Temp;Humidity;BMP_temperature;BMP_pressure;BME280_temperature;BME280_humidity;BME280_pressure;Samples;Min_cycle;Max_cycle;Signal;HPM_P1;HPM_P2
2023/12/02 00:01:35;;;;;;;19.60;8.70;;;;;;;;;;5075476;28;20207;-73
2023/12/02 00:04:01;;;;;;;23.03;8.63;;;;;;;;;;5067729;28;20671;-74
2023/12/02 00:06:27;;;;;;;20.33;8.70;;;;;;;;;;5063733;28;20183;-73
2023/12/02 00:08:53;;;;;;;19.40;8.27;;;;;;;;;;5058476;28;20180;-73
2023/12/02 00:11:19;;;;;;;19.57;7.50;;;;;;;;;;5062654;28;20203;-73
2023/12/02 00:13:45;;;;;;;16.37;7.80;;;;;;;;;;5059820;28;20223;-73
2023/12/02 00:16:11;;;;;;;18.73;6.90;;;;;;;;;;5063694;28;20563;-72
2023/12/02 00:18:37;;;;;;;14.37;6.63;;;;;;;;;;5059785;28;20244;-73
2023/12/02 00:21:03;;;;;;;18.27;7.37;;;;;;;;;;5060126;28;20180;-73
2023/12/02 00:23:29;;;;;;;16.77;6.83;;;;;;;;;;5070367;28;20698;-73
2023/12/02 00:25:55;;;;;;;17.33;7.47;;;;;;;;;;5059614;28;20251;-73
2023/12/02 00:28:21;;;;;;;15.80;7.27;;;;;;;;;;5058971;28;20745;-73
2023/12/02 00:30:47;;;;;;;14.07;6.53;;;;;;;;;;5062078;28;20359;-73
2023/12/02 00:33:13;;;;;;;15.30;6.67;;;;;;;;;;5060311;28;20321;-74
2023/12/02 00:35:39;;;;;;;15.53;6.83;;;;;;;;;;5061162;28;20207;-74
2023/12/02 00:38:05;;;;;;;14.17;6.07;;;;;;;;;;5067253;28;20211;-74
2023/12/02 00:40:31;;;;;;;17.73;6.43;;;;;;;;;;5059832;28;20294;-74
2023/12/02 00:42:57;;;;;;;15.57;6.93;;;;;;;;;;5059025;28;20291;-74
2023/12/02 00:45:23;;;;;;;17.03;6.33;;;;;;;;;;5064072;28;20215;-74
2023/12/02 00:47:49;;;;;;;15.67;6.87;;;;;;;;;;5057386;28;20191;-74
2023/12/02 00:50:16;;;;;;;10.77;5.23;;;;;;;;;;5060188;28;20241;-74
2023/12/02 00:52:42;;;;;;;13.03;5.70;;;;;;;;;;5060084;28;20210;-73
2023/12/02 00:55:08;;;;;;;14.47;5.53;;;;;;;;;;5062084;28;20271;-74
2023/12/02 00:57:34;;;;;;;12.30;4.90;;;;;;;;;;5059788;28;20592;-72
2023/12/02 01:00:00;;;;;;;12.13;5.27;;;;;;;;;;5052839;28;20256;-74
2023/12/02 01:02:26;;;;;;;10.93;5.60;;;;;;;;;;5060622;28;20233;-75
2023/12/02 01:04:52;;;;;;;13.97;5.53;;;;;;;;;;5073662;28;20253;-75
2023/12/02 01:07:18;;;;;;;12.73;5.53;;;;;;;;;;5062502;28;20255;-74
2023/12/02 01:09:44;;;;;;;12.57;5.73;;;;;;;;;;5062045;28;20299;-74
2023/12/02 01:12:10;;;;;;;12.20;5.13;;;;;;;;;;5062483;28;20174;-74
2023/12/02 01:14:36;;;;;;;12.83;5.07;;;;;;;;;;5061079;28;20296;-74
2023/12/02 01:17:02;;;;;;;12.10;5.17;;;;;;;;;;5061900;28;20206;-75
2023/12/02 01:19:28;;;;;;;14.33;6.43;;;;;;;;;;5059467;28;20210;-74
2023/12/02 01:21:54;;;;;;;12.73;5.50;;;;;;;;;;5055969;28;20688;-73
2023/12/02 01:24:20;;;;;;;17.20;6.60;;;;;;;;;;5060150;28;20206;-74
2023/12/02 01:26:46;;;;;;;14.47;6.17;;;;;;;;;;5059293;28;20187;-73
2023/12/02 01:29:12;;;;;;;13.73;5.20;;;;;;;;;;5061018;28;20703;-73
2023/12/02 01:31:38;;;;;;;13.17;5.77;;;;;;;;;;5058157;28;20242;-71
2023/12/02 01:34:05;;;;;;;14.83;5.77;;;;;;;;;;5060194;28;20215;-73
2023/12/02 01:36:31;;;;;;;16.70;6.33;;;;;;;;;;5060571;28;20246;-73
2023/12/02 01:38:57;;;;;;;13.13;5.13;;;;;;;;;;5074384;28;20207;-73
2023/12/02 01:41:23;;;;;;;15.70;6.07;;;;;;;;;;5062293;28;20281;-74
2023/12/02 01:43:50;;;;;;;16.67;6.40;;;;;;;;;;5058119;28;20660;-73
2023/12/02 01:46:16;;;;;;;13.37;5.97;;;;;;;;;;5058367;28;20591;-73
2023/12/02 01:48:42;;;;;;;13.77;6.20;;;;;;;;;;5060047;28;20219;-73
2023/12/02 01:51:08;;;;;;;16.17;6.17;;;;;;;;;;5059256;28;20258;-74
2023/12/02 01:53:34;;;;;;;15.23;6.03;;;;;;;;;;5060056;28;20609;-74
2023/12/02 01:56:00;;;;;;;14.20;5.97;;;;;;;;;;5062846;28;20293;-74
2023/12/02 01:58:26;;;;;;;14.70;6.27;;;;;;;;;;5065593;28;20598;-73
2023/12/02 02:00:52;;;;;;;12.23;5.50;;;;;;;;;;5063144;28;20222;-74
2023/12/02 02:03:18;;;;;;;12.77;6.23;;;;;;;;;;5065848;28;20194;-74
2023/12/02 02:05:44;;;;;;;11.23;5.10;;;;;;;;;;5076940;28;20172;-73
2023/12/02 02:08:11;;;;;;;14.17;6.30;;;;;;;;;;5060617;28;20195;-74
2023/12/02 02:10:37;;;;;;;12.60;5.33;;;;;;;;;;5058680;28;20207;-74
2023/12/02 02:13:03;;;;;;;14.27;5.60;;;;;;;;;;5058290;28;20244;-74
2023/12/02 02:15:28;;;;;;;12.80;5.23;;;;;;;;;;5060765;28;20268;-74
2023/12/02 02:17:54;;;;;;;11.37;4.77;;;;;;;;;;5058440;28;20654;-75
2023/12/02 02:20:20;;;;;;;11.27;5.17;;;;;;;;;;5065611;28;20214;-74
2023/12/02 02:22:46;;;;;;;12.60;4.83;;;;;;;;;;5060119;28;20598;-73
2023/12/02 02:25:12;;;;;;;10.73;4.70;;;;;;;;;;5058013;28;20593;-74
2023/12/02 02:27:39;;;;;;;11.33;4.93;;;;;;;;;;5059992;28;20305;-74
2023/12/02 02:30:05;;;;;;;13.07;5.83;;;;;;;;;;5057422;28;20184;-74
2023/12/02 02:32:31;;;;;;;10.63;5.73;;;;;;;;;;5065795;28;20238;-74
2023/12/02 02:34:58;;;;;;;13.17;5.67;;;;;;;;;;5059012;28;20757;-74
2023/12/02 02:37:24;;;;;;;14.23;6.57;;;;;;;;;;5060435;28;20214;-74
2023/12/02 02:39:50;;;;;;;13.53;5.57;;;;;;;;;;5059014;28;20219;-74
2023/12/02 02:42:16;;;;;;;13.97;5.30;;;;;;;;;;5065504;28;20188;-74
2023/12/02 02:44:42;;;;;;;13.67;5.10;;;;;;;;;;5058443;28;20209;-73
2023/12/02 02:47:08;;;;;;;12.30;5.60;;;;;;;;;;5058333;28;20738;-74
2023/12/02 02:49:34;;;;;;;14.03;5.43;;;;;;;;;;5062021;28;20293;-74
2023/12/02 02:52:00;;;;;;;11.50;4.60;;;;;;;;;;5058873;28;20212;-73
2023/12/02 02:54:26;;;;;;;10.47;4.53;;;;;;;;;;5059799;28;20195;-74
2023/12/02 02:56:52;;;;;;;13.93;5.03;;;;;;;;;;5058875;28;20248;-74
2023/12/02 02:59:18;;;;;;;11.43;5.00;;;;;;;;;;5059188;28;20229;-74
2023/12/02 03:01:45;;;;;;;15.00;5.20;;;;;;;;;;5056969;28;20684;-74
2023/12/02 03:04:11;;;;;;;9.40;4.57;;;;;;;;;;5073629;28;20226;-75
2023/12/02 03:06:37;;;;;;;12.00;4.80;;;;;;;;;;5059437;28;20220;-74
2023/12/02 03:09:05;;;;;;;11.93;4.20;;;;;;;;;;5058212;28;20187;-74
2023/12/02 03:11:32;;;;;;;11.90;5.30;;;;;;;;;;5065180;28;20234;-74
2023/12/02 03:13:58;;;;;;;12.37;4.57;;;;;;;;;;5051441;28;20226;-74
2023/12/02 03:16:24;;;;;;;15.03;5.83;;;;;;;;;;5055023;28;20265;-74
2023/12/02 03:18:50;;;;;;;9.73;4.80;;;;;;;;;;5073115;28;20204;-73
2023/12/02 03:21:16;;;;;;;11.50;4.97;;;;;;;;;;5062517;28;20178;-74
2023/12/02 03:23:42;;;;;;;13.67;5.53;;;;;;;;;;5054387;28;20214;-74
2023/12/02 03:26:08;;;;;;;11.27;4.97;;;;;;;;;;5059165;28;20298;-74
2023/12/02 03:28:34;;;;;;;13.23;4.60;;;;;;;;;;5061638;28;20225;-74
2023/12/02 03:31:01;;;;;;;13.57;5.57;;;;;;;;;;5056869;28;20701;-73
2023/12/02 03:33:27;;;;;;;13.03;5.60;;;;;;;;;;5057995;28;20199;-73
2023/12/02 03:35:53;;;;;;;14.40;5.30;;;;;;;;;;5059924;28;20209;-72
2023/12/02 03:38:19;;;;;;;15.97;6.47;;;;;;;;;;5058195;28;20200;-74
2023/12/02 03:40:45;;;;;;;13.67;5.57;;;;;;;;;;5058650;28;20314;-74
2023/12/02 03:43:11;;;;;;;16.30;5.80;;;;;;;;;;5072732;28;20230;-74
2023/12/02 03:45:37;;;;;;;14.50;5.87;;;;;;;;;;5055027;28;20231;-73
2023/12/02 03:48:03;;;;;;;14.97;5.33;;;;;;;;;;5060628;28;20186;-73
2023/12/02 03:50:29;;;;;;;13.63;5.87;;;;;;;;;;5053953;28;20291;-74
2023/12/02 03:52:55;;;;;;;14.87;6.27;;;;;;;;;;5059303;28;20218;-73
2023/12/02 03:55:21;;;;;;;17.03;5.83;;;;;;;;;;5059785;28;20215;-74
2023/12/02 03:57:47;;;;;;;14.07;5.37;;;;;;;;;;5054954;28;20207;-74
2023/12/02 04:00:13;;;;;;;12.83;5.60;;;;;;;;;;5059417;28;20186;-74
2023/12/02 04:02:40;;;;;;;16.23;6.47;;;;;;;;;;5057390;28;20718;-74
2023/12/02 04:05:09;;;;;;;11.37;5.43;;;;;;;;;;5056640;28;20253;-74
2023/12/02 04:07:36;;;;;;;14.17;5.90;;;;;;;;;;5060815;28;20210;-74
2023/12/02 04:10:03;;;;;;;15.60;6.27;;;;;;;;;;5054925;28;20222;-74
2023/12/02 04:12:29;;;;;;;12.37;6.03;;;;;;;;;;5056725;28;20949;-73
2023/12/02 04:14:55;;;;;;;14.37;6.10;;;;;;;;;;5052922;28;20211;-73
2023/12/02 04:17:21;;;;;;;13.10;5.47;;;;;;;;;;5054954;28;20210;-74
2023/12/02 04:19:47;;;;;;;13.30;5.67;;;;;;;;;;5075543;28;20701;-74
2023/12/02 04:22:13;;;;;;;13.30;5.83;;;;;;;;;;5057102;28;20356;-74
2023/12/02 04:24:39;;;;;;;16.37;6.57;;;;;;;;;;5055673;28;20781;-73
2023/12/02 04:27:07;;;;;;;15.20;6.47;;;;;;;;;;5055812;28;20288;-73
2023/12/02 04:29:36;;;;;;;15.73;6.27;;;;;;;;;;5056871;28;20215;-74
2023/12/02 04:32:03;;;;;;;12.50;5.73;;;;;;;;;;5058131;28;20218;-74
2023/12/02 04:34:29;;;;;;;11.87;4.93;;;;;;;;;;5059057;28;20299;-74
2023/12/02 04:36:56;;;;;;;12.63;5.20;;;;;;;;;;5055665;28;20211;-71
2023/12/02 04:39:22;;;;;;;10.67;3.90;;;;;;;;;;5057483;28;20179;-74
2023/12/02 04:41:48;;;;;;;12.57;4.80;;;;;;;;;;5059735;28;20236;-74
2023/12/02 04:44:14;;;;;;;13.47;5.00;;;;;;;;;;5052199;28;20223;-74
2023/12/02 04:46:43;;;;;;;8.13;3.87;;;;;;;;;;5076915;28;20306;-73
2023/12/02 04:49:10;;;;;;;11.20;4.90;;;;;;;;;;5053427;28;20297;-74
2023/12/02 04:51:36;;;;;;;7.83;4.60;;;;;;;;;;5056239;28;20724;-74
2023/12/02 04:54:02;;;;;;;10.73;4.53;;;;;;;;;;5058534;28;20210;-74
2023/12/02 04:56:28;;;;;;;8.97;4.57;;;;;;;;;;5054058;28;20203;-73
2023/12/02 04:58:54;;;;;;;12.47;4.57;;;;;;;;;;5059504;28;20263;-73
2023/12/02 05:01:20;;;;;;;10.33;4.50;;;;;;;;;;5054231;28;20211;-74
2023/12/02 05:03:46;;;;;;;10.50;5.00;;;;;;;;;;5070696;28;20223;-74
2023/12/02 05:06:17;;;;;;;10.67;4.13;;;;;;;;;;5059048;28;20179;-73
2023/12/02 05:08:44;;;;;;;11.97;4.03;;;;;;;;;;5072051;28;20599;-73
2023/12/02 05:11:16;;;;;;;10.90;4.47;;;;;;;;;;5059269;28;20220;-74
2023/12/02 05:13:42;;;;;;;10.77;4.53;;;;;;;;;;5056939;28;20260;-74
2023/12/02 05:16:08;;;;;;;11.03;5.00;;;;;;;;;;5051608;28;20637;-74
2023/12/02 05:18:34;;;;;;;10.87;4.57;;;;;;;;;;5059886;28;20215;-74
2023/12/02 05:21:00;;;;;;;11.93;4.13;;;;;;;;;;5059447;28;20209;-74
2023/12/02 05:23:26;;;;;;;11.30;4.67;;;;;;;;;;5054064;28;20244;-74
2023/12/02 05:25:52;;;;;;;9.57;4.33;;;;;;;;;;5058918;28;20351;-74
2023/12/02 05:28:18;;;;;;;9.10;4.27;;;;;;;;;;5058442;28;20866;-74
2023/12/02 05:30:45;;;;;;;9.97;4.57;;;;;;;;;;5060462;28;20210;-74
2023/12/02 05:33:12;;;;;;;12.77;4.70;;;;;;;;;;5057969;28;20182;-75
2023/12/02 05:35:38;;;;;;;9.07;4.13;;;;;;;;;;5068658;28;20209;-74
2023/12/02 05:38:04;;;;;;;10.17;4.80;;;;;;;;;;5059189;28;20207;-73
2023/12/02 05:40:30;;;;;;;9.93;3.70;;;;;;;;;;5059251;28;20294;-74
2023/12/02 05:42:56;;;;;;;10.17;4.80;;;;;;;;;;5060952;28;20225;-73
2023/12/02 05:45:22;;;;;;;11.30;4.33;;;;;;;;;;5060735;28;20187;-74
2023/12/02 05:47:48;;;;;;;9.40;5.13;;;;;;;;;;5063577;28;20621;-74
2023/12/02 05:50:14;;;;;;;8.83;4.17;;;;;;;;;;5056314;28;20214;-74
2023/12/02 05:52:40;;;;;;;8.97;4.37;;;;;;;;;;5062344;28;20264;-74
2023/12/02 05:55:06;;;;;;;8.83;4.10;;;;;;;;;;5058145;28;20225;-74
2023/12/02 05:57:32;;;;;;;8.37;4.27;;;;;;;;;;5061251;28;20308;-74
2023/12/02 05:59:58;;;;;;;8.67;3.83;;;;;;;;;;5059233;28;20197;-74
2023/12/02 06:02:24;;;;;;;11.33;4.20;;;;;;;;;;5057868;28;20585;-74
2023/12/02 06:04:50;;;;;;;10.87;4.67;;;;;;;;;;5065915;28;20243;-74
2023/12/02 06:07:16;;;;;;;9.77;4.93;;;;;;;;;;5057844;28;20219;-74
2023/12/02 06:09:43;;;;;;;12.33;4.93;;;;;;;;;;5065555;28;20215;-73
2023/12/02 06:12:09;;;;;;;10.97;5.20;;;;;;;;;;5057886;28;20261;-73
2023/12/02 06:14:35;;;;;;;16.27;5.43;;;;;;;;;;5059876;28;20215;-74
2023/12/02 06:17:01;;;;;;;11.87;5.83;;;;;;;;;;5059615;28;20574;-74
2023/12/02 06:19:27;;;;;;;13.30;4.97;;;;;;;;;;5058106;28;20585;-75
2023/12/02 06:21:53;;;;;;;12.10;5.23;;;;;;;;;;5062878;28;20214;-74
2023/12/02 06:24:19;;;;;;;10.17;4.50;;;;;;;;;;5056999;28;20208;-75
2023/12/02 06:26:45;;;;;;;10.47;4.47;;;;;;;;;;5056536;28;20237;-74
2023/12/02 06:29:11;;;;;;;11.63;4.37;;;;;;;;;;5056030;28;20300;-73
2023/12/02 06:31:37;;;;;;;8.77;4.23;;;;;;;;;;5062185;28;20302;-77
2023/12/02 06:34:06;;;;;;;11.00;4.57;;;;;;;;;;5058466;28;20237;-72
2023/12/02 06:36:33;;;;;;;13.50;4.60;;;;;;;;;;5060230;28;20241;-74
2023/12/02 06:38:59;;;;;;;11.47;4.27;;;;;;;;;;5061318;28;20556;-74
2023/12/02 06:41:25;;;;;;;8.40;4.23;;;;;;;;;;5057702;28;20211;-75
2023/12/02 06:43:51;;;;;;;9.47;4.00;;;;;;;;;;5063322;28;20221;-74
2023/12/02 06:46:23;;;;;;;6.27;3.00;;;;;;;;;;5055238;28;20222;-73
2023/12/02 06:48:50;;;;;;;8.03;3.40;;;;;;;;;;5065418;28;20218;-74
2023/12/02 06:51:16;;;;;;;8.20;4.00;;;;;;;;;;5064998;28;20657;-73
2023/12/02 06:53:42;;;;;;;7.90;3.47;;;;;;;;;;5061793;28;20207;-73
2023/12/02 06:56:18;;;;;;;8.33;3.80;;;;;;;;;;5062635;28;20218;-72
2023/12/02 06:58:44;;;;;;;7.80;3.53;;;;;;;;;;5058642;28;20245;-74
2023/12/02 07:01:10;;;;;;;8.47;3.63;;;;;;;;;;5070891;28;20731;-74
2023/12/02 07:03:39;;;;;;;5.90;3.20;;;;;;;;;;5064717;28;20215;-74
2023/12/02 07:06:05;;;;;;;10.13;4.03;;;;;;;;;;5061750;28;20183;-74
2023/12/02 07:08:31;;;;;;;8.20;3.70;;;;;;;;;;5061311;28;20207;-73
2023/12/02 07:10:57;;;;;;;7.33;2.87;;;;;;;;;;5062060;28;20248;-74
2023/12/02 07:13:23;;;;;;;8.33;3.27;;;;;;;;;;5058974;28;20227;-74
2023/12/02 07:15:49;;;;;;;11.80;4.00;;;;;;;;;;5065364;28;20345;-73
2023/12/02 07:18:15;;;;;;;12.60;3.53;;;;;;;;;;5063095;28;20186;-77
2023/12/02 07:20:41;;;;;;;9.00;4.30;;;;;;;;;;5061386;28;20313;-74
2023/12/02 07:23:07;;;;;;;10.50;4.10;;;;;;;;;;5063620;28;20208;-78
2023/12/02 07:25:33;;;;;;;7.20;2.63;;;;;;;;;;5052364;28;20214;-73
2023/12/02 07:27:59;;;;;;;5.60;2.97;;;;;;;;;;5066587;28;20688;-73
2023/12/02 07:30:25;;;;;;;7.77;3.50;;;;;;;;;;5060641;28;20266;-72
2023/12/02 07:32:51;;;;;;;6.70;2.90;;;;;;;;;;5063906;28;20277;-74
2023/12/02 07:35:17;;;;;;;6.40;3.10;;;;;;;;;;5061072;28;20219;-74
2023/12/02 07:37:47;;;;;;;7.50;3.67;;;;;;;;;;5061535;28;20577;-73
2023/12/02 07:40:13;;;;;;;6.97;3.37;;;;;;;;;;5059114;28;20212;-73
2023/12/02 07:42:39;;;;;;;5.63;3.30;;;;;;;;;;5066525;28;20210;-73
2023/12/02 07:45:06;;;;;;;7.60;3.13;;;;;;;;;;5060333;28;20203;-73
2023/12/02 07:47:32;;;;;;;10.20;3.43;;;;;;;;;;5061573;28;20211;-73
2023/12/02 07:49:58;;;;;;;6.33;3.37;;;;;;;;;;5062839;28;20231;-72
2023/12/02 07:52:24;;;;;;;7.87;2.97;;;;;;;;;;5075904;28;20231;-74
2023/12/02 07:54:50;;;;;;;7.00;2.97;;;;;;;;;;5061769;28;20298;-74
2023/12/02 07:57:16;;;;;;;9.30;3.57;;;;;;;;;;5059954;28;20340;-73
2023/12/02 07:59:42;;;;;;;8.33;3.97;;;;;;;;;;5061636;28;20571;-73
2023/12/02 08:02:08;;;;;;;12.20;5.00;;;;;;;;;;5062121;28;20253;-72
2023/12/02 08:04:34;;;;;;;12.53;4.07;;;;;;;;;;5056779;28;20215;-73
2023/12/02 08:07:00;;;;;;;10.27;3.60;;;;;;;;;;5068413;28;20821;-72
2023/12/02 08:09:26;;;;;;;8.80;3.90;;;;;;;;;;5062497;28;20257;-74
2023/12/02 08:11:52;;;;;;;9.63;4.27;;;;;;;;;;5059262;28;20187;-73
2023/12/02 08:14:18;;;;;;;10.20;4.07;;;;;;;;;;5059812;28;20227;-71
2023/12/02 08:16:44;;;;;;;10.33;4.30;;;;;;;;;;5060048;28;20206;-73
2023/12/02 08:19:10;;;;;;;10.87;3.93;;;;;;;;;;5074997;28;20204;-73
2023/12/02 08:21:36;;;;;;;7.70;3.77;;;;;;;;;;5077006;28;20213;-73
2023/12/02 08:24:02;;;;;;;7.87;4.10;;;;;;;;;;5053686;28;20195;-73
2023/12/02 08:26:28;;;;;;;9.47;4.90;;;;;;;;;;5060621;28;20211;-73
2023/12/02 08:28:54;;;;;;;11.00;4.03;;;;;;;;;;5066249;28;20230;-73
2023/12/02 08:31:20;;;;;;;13.03;4.73;;;;;;;;;;5074896;28;20231;-72
2023/12/02 08:33:46;;;;;;;9.90;4.07;;;;;;;;;;5062108;28;20632;-73
2023/12/02 08:36:12;;;;;;;11.97;5.17;;;;;;;;;;5060117;28;20213;-73
2023/12/02 08:38:38;;;;;;;11.03;3.80;;;;;;;;;;5057989;28;20615;-72
2023/12/02 08:41:04;;;;;;;13.13;4.73;;;;;;;;;;5059922;28;20215;-74
2023/12/02 08:43:30;;;;;;;11.57;4.27;;;;;;;;;;5060924;28;20209;-73
2023/12/02 08:45:56;;;;;;;9.97;4.97;;;;;;;;;;5070257;28;20222;-74
2023/12/02 08:48:22;;;;;;;14.40;4.70;;;;;;;;;;5059472;28;20679;-73
2023/12/02 08:50:48;;;;;;;12.53;4.20;;;;;;;;;;5060916;28;20183;-73
2023/12/02 08:53:14;;;;;;;8.47;4.30;;;;;;;;;;5059050;28;20238;-74
2023/12/02 08:55:43;;;;;;;11.43;5.00;;;;;;;;;;5058792;28;20257;-74
2023/12/02 08:58:09;;;;;;;11.90;5.13;;;;;;;;;;5067257;28;20208;-74
2023/12/02 09:00:35;;;;;;;9.87;4.67;;;;;;;;;;5061523;28;20784;-74
2023/12/02 09:03:01;;;;;;;11.77;4.70;;;;;;;;;;5060538;28;20191;-73
2023/12/02 09:05:27;;;;;;;12.33;5.60;;;;;;;;;;5060329;28;20206;-73
2023/12/02 09:07:53;;;;;;;10.73;5.57;;;;;;;;;;5062946;28;20612;-73
2023/12/02 09:10:19;;;;;;;13.57;5.70;;;;;;;;;;5058962;28;20203;-72
2023/12/02 09:12:45;;;;;;;8.97;4.60;;;;;;;;;;5062252;28;20244;-73
2023/12/02 09:15:11;;;;;;;14.30;6.07;;;;;;;;;;5060583;28;20700;-73
2023/12/02 09:17:56;;;;;;;14.40;5.50;;;;;;;;;;5059203;28;20685;-71
2023/12/02 09:20:45;;;;;;;12.47;5.40;;;;;;;;;;5059251;28;20235;-71
2023/12/02 09:23:12;;;;;;;12.90;4.80;;;;;;;;;;5049988;28;20241;-73
2023/12/02 09:25:39;;;;;;;13.17;4.70;;;;;;;;;;5057063;28;20212;-73
2023/12/02 09:28:05;;;;;;;15.37;5.83;;;;;;;;;;5060103;28;20312;-73
2023/12/02 09:30:32;;;;;;;12.70;5.27;;;;;;;;;;5055753;28;20227;-73
2023/12/02 09:32:58;;;;;;;11.37;4.60;;;;;;;;;;5062362;28;20184;-73
2023/12/02 09:35:23;;;;;;;13.10;6.13;;;;;;;;;;5057058;28;20212;-72
2023/12/02 09:37:56;;;;;;;9.97;5.30;;;;;;;;;;5056288;28;20208;-73
2023/12/02 09:40:25;;;;;;;15.90;6.13;;;;;;;;;;5059487;28;20269;-73
2023/12/02 09:42:55;;;;;;;12.43;5.73;;;;;;;;;;5055076;28;20207;-73
2023/12/02 09:45:22;;;;;;;14.53;5.23;;;;;;;;;;5062309;28;20182;-73
2023/12/02 09:48:00;;;;;;;15.20;6.07;;;;;;;;;;5061588;28;20648;-74
2023/12/02 09:50:28;;;;;;;14.27;5.67;;;;;;;;;;5056297;28;20612;-74
2023/12/02 09:53:14;;;;;;;15.80;6.67;;;;;;;;;;5068021;28;20217;-74
2023/12/02 09:55:48;;;;;;;13.67;6.00;;;;;;;;;;5056152;28;20223;-73
2023/12/02 09:58:23;;;;;;;14.10;6.00;;;;;;;;;;5052477;28;20207;-74
2023/12/02 10:01:04;;;;;;;14.27;6.20;;;;;;;;;;5061051;28;20209;-73
2023/12/02 10:03:45;;;;;;;15.53;6.00;;;;;;;;;;5052765;28;20229;-74
2023/12/02 10:06:30;;;;;;;12.13;5.77;;;;;;;;;;5056070;28;20174;-74
2023/12/02 10:08:56;;;;;;;13.33;6.03;;;;;;;;;;5055922;28;20181;-72
2023/12/02 10:11:26;;;;;;;15.83;7.00;;;;;;;;;;5060485;28;20295;-74
2023/12/02 10:14:04;;;;;;;15.27;6.80;;;;;;;;;;5059923;28;20216;-75
2023/12/02 10:16:31;;;;;;;15.13;6.37;;;;;;;;;;5053362;28;20226;-74
2023/12/02 10:19:00;;;;;;;12.20;5.27;;;;;;;;;;5060923;28;20212;-74
2023/12/02 10:21:35;;;;;;;15.77;6.23;;;;;;;;;;5054013;28;20532;-74
2023/12/02 10:24:08;;;;;;;12.57;5.30;;;;;;;;;;5045808;28;20276;-73
2023/12/02 10:26:50;;;;;;;11.30;5.67;;;;;;;;;;5058658;28;20214;-75
2023/12/02 10:29:17;;;;;;;15.07;5.97;;;;;;;;;;5058507;28;20209;-74
2023/12/02 10:31:58;;;;;;;14.73;6.13;;;;;;;;;;5071302;28;20765;-74
2023/12/02 10:34:28;;;;;;;11.73;5.67;;;;;;;;;;5058251;28;20301;-75
2023/12/02 10:36:58;;;;;;;13.33;5.63;;;;;;;;;;5056340;28;20210;-74
2023/12/02 10:39:33;;;;;;;12.07;5.03;;;;;;;;;;5061299;28;20693;-73
2023/12/02 10:42:01;;;;;;;9.30;4.50;;;;;;;;;;5059048;28;20793;-74
2023/12/02 10:44:30;;;;;;;11.57;5.07;;;;;;;;;;5061988;28;20737;-74
2023/12/02 10:46:57;;;;;;;12.00;4.73;;;;;;;;;;5072054;28;20218;-74
2023/12/02 10:49:23;;;;;;;10.80;4.83;;;;;;;;;;5057796;28;20236;-72
2023/12/02 10:51:50;;;;;;;11.20;4.87;;;;;;;;;;5058950;28;20687;-74
2023/12/02 10:54:20;;;;;;;12.60;4.67;;;;;;;;;;5051917;28;20799;-72
2023/12/02 10:56:47;;;;;;;10.57;4.27;;;;;;;;;;5065581;28;20190;-74
2023/12/02 10:59:13;;;;;;;13.13;4.03;;;;;;;;;;5060695;28;20208;-74
2023/12/02 11:01:48;;;;;;;9.60;4.80;;;;;;;;;;5072401;28;20213;-71
2023/12/02 11:04:19;;;;;;;8.30;4.03;;;;;;;;;;5061265;28;20212;-74
2023/12/02 11:06:51;;;;;;;9.10;3.93;;;;;;;;;;5068849;28;20218;-74
2023/12/02 11:09:21;;;;;;;8.33;4.20;;;;;;;;;;5062176;28;20176;-73
2023/12/02 11:11:47;;;;;;;8.93;4.20;;;;;;;;;;5059206;28;20173;-72
2023/12/02 11:14:18;;;;;;;9.57;3.33;;;;;;;;;;5058147;28;20250;-74
2023/12/02 11:16:54;;;;;;;7.60;3.73;;;;;;;;;;5057623;28;20209;-75
2023/12/02 11:19:39;;;;;;;9.83;4.27;;;;;;;;;;5063266;28;20288;-73
2023/12/02 11:22:17;;;;;;;6.43;3.23;;;;;;;;;;5072100;28;20209;-73
2023/12/02 11:24:46;;;;;;;6.30;3.37;;;;;;;;;;5049714;28;20222;-73
2023/12/02 11:27:18;;;;;;;6.57;2.90;;;;;;;;;;5056721;28;20266;-73
2023/12/02 11:29:56;;;;;;;7.77;3.37;;;;;;;;;;5058276;28;20182;-73
2023/12/02 11:32:25;;;;;;;5.13;3.17;;;;;;;;;;5056758;28;20206;-73
2023/12/02 11:35:07;;;;;;;7.37;3.80;;;;;;;;;;5056938;28;20248;-73
2023/12/02 11:37:36;;;;;;;9.33;3.73;;;;;;;;;;5061189;28;20696;-73
2023/12/02 11:40:10;;;;;;;10.67;4.47;;;;;;;;;;5061671;28;20214;-72
2023/12/02 11:42:41;;;;;;;6.90;3.33;;;;;;;;;;5062585;28;20595;-72
2023/12/02 11:45:17;;;;;;;8.17;3.13;;;;;;;;;;5068990;28;20256;-73
2023/12/02 11:47:49;;;;;;;10.47;4.37;;;;;;;;;;5075702;28;20667;-74
2023/12/02 11:50:18;;;;;;;7.83;3.77;;;;;;;;;;5068513;28;20263;-75
2023/12/02 11:52:50;;;;;;;7.30;4.00;;;;;;;;;;5062767;28;20706;-73
2023/12/02 11:55:21;;;;;;;10.93;4.17;;;;;;;;;;5060907;28;20240;-72
2023/12/02 11:57:58;;;;;;;7.10;4.13;;;;;;;;;;5063094;28;20886;-73
2023/12/02 12:00:37;;;;;;;9.13;3.00;;;;;;;;;;5061148;28;20187;-74
2023/12/02 12:03:03;;;;;;;9.90;3.90;;;;;;;;;;5060595;28;20179;-74
2023/12/02 12:05:34;;;;;;;10.73;4.77;;;;;;;;;;5060149;28;20605;-73
2023/12/02 12:08:14;;;;;;;10.17;4.63;;;;;;;;;;5060543;28;20212;-72
2023/12/02 12:10:41;;;;;;;12.23;4.60;;;;;;;;;;5059010;28;20685;-74
2023/12/02 12:13:09;;;;;;;9.63;4.90;;;;;;;;;;5057081;28;20207;-73
2023/12/02 12:15:36;;;;;;;9.80;5.10;;;;;;;;;;5062231;28;20297;-73
2023/12/02 12:18:02;;;;;;;9.13;4.97;;;;;;;;;;5059462;28;20662;-74
2023/12/02 12:20:29;;;;;;;16.17;4.70;;;;;;;;;;5057253;28;20235;-73
2023/12/02 12:22:55;;;;;;;12.30;4.80;;;;;;;;;;5058497;28;20237;-73
2023/12/02 12:25:25;;;;;;;11.33;4.33;;;;;;;;;;5055817;28;20322;-73
2023/12/02 12:27:51;;;;;;;10.60;4.30;;;;;;;;;;5060710;28;20226;-73
2023/12/02 12:30:17;;;;;;;11.10;4.60;;;;;;;;;;5063549;28;20172;-73
2023/12/02 12:32:43;;;;;;;15.03;6.10;;;;;;;;;;5060332;28;20182;-72
2023/12/02 12:35:10;;;;;;;13.37;5.10;;;;;;;;;;5062221;28;20214;-73
2023/12/02 12:37:36;;;;;;;11.03;5.17;;;;;;;;;;5060471;28;20270;-73
2023/12/02 12:40:03;;;;;;;10.20;5.03;;;;;;;;;;5060009;28;20680;-73
2023/12/02 12:42:29;;;;;;;11.63;4.97;;;;;;;;;;5062435;28;20260;-73
2023/12/02 12:44:59;;;;;;;14.37;5.97;;;;;;;;;;5059716;28;20205;-73
2023/12/02 12:47:27;;;;;;;13.87;5.83;;;;;;;;;;5067200;28;20214;-73
2023/12/02 12:49:55;;;;;;;12.60;5.23;;;;;;;;;;5074145;28;20220;-72
2023/12/02 12:52:21;;;;;;;14.60;6.53;;;;;;;;;;5057206;28;20293;-73
2023/12/02 12:54:47;;;;;;;14.07;5.27;;;;;;;;;;5055895;28;20225;-73
2023/12/02 12:57:28;;;;;;;12.93;6.10;;;;;;;;;;5059545;28;20275;-73
2023/12/02 12:59:55;;;;;;;13.23;5.90;;;;;;;;;;5072433;28;20199;-74
2023/12/02 13:02:51;;;;;;;10.03;5.47;;;;;;;;;;5062779;28;20204;-73
2023/12/02 13:05:17;;;;;;;8.37;5.40;;;;;;;;;;5040118;28;20231;-74
2023/12/02 13:08:03;;;;;;;18.47;6.90;;;;;;;;;;5055752;28;20214;-71
2023/12/02 13:10:33;;;;;;;14.07;6.33;;;;;;;;;;5059654;28;20217;-72
2023/12/02 13:13:01;;;;;;;11.87;6.43;;;;;;;;;;5058717;28;20230;-74
2023/12/02 13:15:28;;;;;;;13.73;6.23;;;;;;;;;;5057345;28;21187;-73
2023/12/02 13:17:55;;;;;;;12.30;6.20;;;;;;;;;;5059329;28;20190;-73
2023/12/02 13:20:23;;;;;;;14.60;6.77;;;;;;;;;;5061982;28;20689;-73
2023/12/02 13:22:49;;;;;;;12.97;6.80;;;;;;;;;;5058583;28;20291;-73
2023/12/02 13:25:16;;;;;;;12.70;5.97;;;;;;;;;;5056392;28;20278;-72
2023/12/02 13:27:47;;;;;;;13.63;7.17;;;;;;;;;;5059667;28;20304;-73
2023/12/02 13:30:14;;;;;;;15.73;6.63;;;;;;;;;;5058503;28;20559;-73
2023/12/02 13:32:42;;;;;;;16.63;7.00;;;;;;;;;;5056533;28;20193;-73
2023/12/02 13:35:11;;;;;;;13.13;6.73;;;;;;;;;;5060760;28;20893;-73
2023/12/02 13:37:45;;;;;;;16.20;6.87;;;;;;;;;;5058467;28;20206;-72
2023/12/02 13:40:13;;;;;;;11.93;5.50;;;;;;;;;;5060376;28;20211;-73
2023/12/02 13:42:40;;;;;;;14.43;7.07;;;;;;;;;;5061042;28;20238;-73
2023/12/02 13:45:09;;;;;;;13.33;6.07;;;;;;;;;;5059666;28;20318;-73
2023/12/02 13:47:50;;;;;;;14.37;6.47;;;;;;;;;;5072519;28;20358;-72
2023/12/02 13:50:18;;;;;;;16.70;6.77;;;;;;;;;;5062422;28;20313;-73
2023/12/02 13:53:16;;;;;;;15.63;6.93;;;;;;;;;;5059297;28;20703;-73
2023/12/02 13:55:45;;;;;;;17.57;7.00;;;;;;;;;;5018958;28;20222;-73
2023/12/02 13:58:21;;;;;;;16.47;6.73;;;;;;;;;;5058796;28;20873;-72
2023/12/02 14:00:47;;;;;;;14.83;6.87;;;;;;;;;;5060093;28;20267;-74
2023/12/02 14:03:22;;;;;;;13.33;6.50;;;;;;;;;;5058059;28;20194;-74
2023/12/02 14:06:11;;;;;;;16.33;6.80;;;;;;;;;;5073592;28;20274;-73
2023/12/02 14:08:37;;;;;;;13.60;6.07;;;;;;;;;;5049312;28;20216;-74
2023/12/02 14:11:09;;;;;;;13.10;6.67;;;;;;;;;;5058182;28;20306;-74
2023/12/02 14:13:42;;;;;;;12.07;5.97;;;;;;;;;;5055478;28;20227;-75
2023/12/02 14:16:14;;;;;;;12.53;5.43;;;;;;;;;;5062520;28;20224;-74
2023/12/02 14:19:02;;;;;;;11.27;5.57;;;;;;;;;;5061466;28;20652;-73
2023/12/02 14:21:44;;;;;;;8.37;4.33;;;;;;;;;;5064659;28;20226;-74
2023/12/02 14:24:13;;;;;;;9.37;5.03;;;;;;;;;;5055777;28;20202;-74
2023/12/02 14:26:57;;;;;;;13.60;6.27;;;;;;;;;;5054572;28;20184;-74
2023/12/02 14:29:35;;;;;;;15.77;6.80;;;;;;;;;;5055181;28;20290;-74
2023/12/02 14:32:19;;;;;;;14.37;5.70;;;;;;;;;;5059600;28;20272;-73
2023/12/02 14:35:05;;;;;;;13.27;6.30;;;;;;;;;;5061568;28;20217;-72
2023/12/02 14:37:32;;;;;;;11.57;5.87;;;;;;;;;;5071145;28;20579;-73
2023/12/02 14:40:16;;;;;;;11.73;6.10;;;;;;;;;;5058403;28;20224;-73